Time;durP1;ratioP1;P1;durP2;ratioP2;P2;SDS_P1;SDS_P2;PMS_P1;PMS_P2;Temp;Humidity;BMP_temperature;BMP_pressure;BME280_temperature;BME280_humidity;BME280_pressure;Samples;Min_cycle;Max_cycle;Signal;HPM_P1;HPM_P2
2022/05/21 00:00:14;;;;;;;4.28;3.40;;;;;;;;;;5102520;28;20518;-68
2022/05/21 00:02:40;;;;;;;4.32;3.42;;;;;;;;;;5102469;28;20278;-68
2022/05/21 00:05:09;;;;;;;3.33;2.85;;;;;;;;;;5102543;28;20261;-68
2022/05/21 00:07:35;;;;;;;5.05;3.20;;;;;;;;;;5102461;28;20517;-68
2022/05/21 00:10:02;;;;;;;3.30;3.00;;;;;;;;;;5102681;28;20196;-68
2022/05/21 00:12:28;;;;;;;3.63;3.08;;;;;;;;;;5102464;28;20196;-68
2022/05/21 00:14:55;;;;;;;5.93;3.17;;;;;;;;;;5102431;28;20198;-68
2022/05/21 00:17:21;;;;;;;2.80;2.58;;;;;;;;;;5102226;28;20517;-68
2022/05/21 00:19:47;;;;;;;2.83;2.50;;;;;;;;;;5102457;28;20203;-68
2022/05/21 00:22:15;;;;;;;5.00;2.10;;;;;;;;;;5102439;28;20203;-68
2022/05/21 00:24:41;;;;;;;2.60;2.40;;;;;;;;;;5102174;28;20208;-68
2022/05/21 00:27:08;;;;;;;3.33;2.63;;;;;;;;;;5101940;28;20195;-68
2022/05/21 00:29:34;;;;;;;3.20;2.60;;;;;;;;;;5102239;28;20196;-68
2022/05/21 00:32:02;;;;;;;2.67;2.13;;;;;;;;;;5102428;28;20196;-68
2022/05/21 00:34:29;;;;;;;2.50;2.17;;;;;;;;;;5102187;28;20271;-68
2022/05/21 00:36:56;;;;;;;2.72;1.90;;;;;;;;;;5102150;28;20450;-68
2022/05/21 00:39:23;;;;;;;2.58;2.38;;;;;;;;;;5102253;28;20387;-68
2022/05/21 00:41:50;;;;;;;3.30;2.05;;;;;;;;;;5102278;28;20196;-68
2022/05/21 00:44:16;;;;;;;2.25;2.05;;;;;;;;;;5102025;28;20398;-68
2022/05/21 00:46:43;;;;;;;2.47;2.13;;;;;;;;;;5102008;28;20222;-68
2022/05/21 00:49:11;;;;;;;4.03;2.10;;;;;;;;;;5102290;28;20196;-68
2022/05/21 00:51:39;;;;;;;4.43;2.20;;;;;;;;;;5103212;28;20203;-68
2022/05/21 00:54:06;;;;;;;2.25;2.10;;;;;;;;;;5106116;28;20203;-68
2022/05/21 00:56:35;;;;;;;3.58;1.65;;;;;;;;;;5105685;28;20306;-68
2022/05/21 01:01:49;;;;;;;2.90;1.92;;;;;;;;;;5106090;28;20240;-68
2022/05/21 01:04:15;;;;;;;2.72;1.95;;;;;;;;;;5105736;28;20303;-68
2022/05/21 01:06:41;;;;;;;3.65;2.08;;;;;;;;;;5105636;28;20230;-68
2022/05/21 01:09:08;;;;;;;3.03;2.60;;;;;;;;;;5105747;28;20196;-68
2022/05/21 01:11:35;;;;;;;4.70;3.13;;;;;;;;;;5106025;28;20199;-68
2022/05/21 01:14:02;;;;;;;4.13;2.85;;;;;;;;;;5105923;28;20416;-68
2022/05/21 01:16:29;;;;;;;3.17;2.50;;;;;;;;;;5105532;28;20191;-68
2022/05/21 01:18:56;;;;;;;2.33;2.13;;;;;;;;;;5105744;28;20196;-68
2022/05/21 01:21:22;;;;;;;2.47;2.28;;;;;;;;;;5105526;28;20203;-68
2022/05/21 01:23:50;;;;;;;2.33;1.80;;;;;;;;;;5105555;28;20221;-68
2022/05/21 01:26:17;;;;;;;2.63;2.00;;;;;;;;;;5105142;28;20215;-68
2022/05/21 01:28:43;;;;;;;2.95;1.92;;;;;;;;;;5105448;28;20203;-68
2022/05/21 01:31:10;;;;;;;1.77;1.67;;;;;;;;;;5105380;28;20202;-68
2022/05/21 01:33:38;;;;;;;5.32;2.20;;;;;;;;;;5105497;28;20196;-68
2022/05/21 01:36:06;;;;;;;2.63;2.05;;;;;;;;;;5105347;28;20198;-68
2022/05/21 01:38:33;;;;;;;3.58;1.80;;;;;;;;;;5105114;28;20199;-68
2022/05/21 01:41:00;;;;;;;5.63;1.90;;;;;;;;;;5105292;28;20196;-68
2022/05/21 01:46:11;;;;;;;1.85;1.65;;;;;;;;;;5104791;28;20277;-68
2022/05/21 01:48:37;;;;;;;1.95;1.80;;;;;;;;;;5105301;28;20383;-67
2022/05/21 01:51:05;;;;;;;1.52;1.52;;;;;;;;;;5104539;28;20204;-68
2022/05/21 01:53:31;;;;;;;2.15;1.95;;;;;;;;;;5105247;28;20212;-68
2022/05/21 01:55:58;;;;;;;1.85;1.75;;;;;;;;;;5104868;28;20192;-67
2022/05/21 01:58:26;;;;;;;2.83;1.70;;;;;;;;;;5104938;28;20199;-67
2022/05/21 02:00:52;;;;;;;1.63;1.58;;;;;;;;;;5104862;28;20196;-68
2022/05/21 02:03:19;;;;;;;2.35;1.75;;;;;;;;;;5103699;28;20274;-68
2022/05/21 02:05:45;;;;;;;2.33;1.90;;;;;;;;;;5104629;28;20223;-67
2022/05/21 02:08:12;;;;;;;1.50;1.40;;;;;;;;;;5104686;28;20196;-67
2022/05/21 02:10:38;;;;;;;1.48;1.40;;;;;;;;;;5104846;28;20199;-69
2022/05/21 02:13:04;;;;;;;2.65;1.92;;;;;;;;;;5104702;28;20196;-67
2022/05/21 02:15:32;;;;;;;4.80;1.55;;;;;;;;;;5104523;28;20215;-67
2022/05/21 02:17:58;;;;;;;1.73;1.40;;;;;;;;;;5104141;28;20195;-67
2022/05/21 02:20:25;;;;;;;1.52;1.42;;;;;;;;;;5104672;28;20499;-68
2022/05/21 02:22:51;;;;;;;6.22;1.63;;;;;;;;;;5104505;28;20200;-68
2022/05/21 02:25:18;;;;;;;1.52;1.52;;;;;;;;;;5104356;28;20199;-68
2022/05/21 02:27:44;;;;;;;1.92;1.80;;;;;;;;;;5104041;28;20199;-68
2022/05/21 02:30:11;;;;;;;3.35;1.95;;;;;;;;;;5104245;28;20196;-68
2022/05/21 02:32:39;;;;;;;2.38;1.65;;;;;;;;;;5104202;28;20518;-68
2022/05/21 02:35:05;;;;;;;2.92;1.58;;;;;;;;;;5104352;28;20195;-68
2022/05/21 02:40:15;;;;;;;2.15;1.50;;;;;;;;;;5104141;28;20190;-68
2022/05/21 02:42:45;;;;;;;1.92;1.60;;;;;;;;;;5103944;28;20196;-68
2022/05/21 02:45:12;;;;;;;1.60;1.40;;;;;;;;;;5103822;28;20236;-68
2022/05/21 02:47:40;;;;;;;1.60;1.50;;;;;;;;;;5103861;28;20218;-68
2022/05/21 02:50:10;;;;;;;1.75;1.65;;;;;;;;;;5104014;28;20499;-68
2022/05/21 02:52:36;;;;;;;3.35;1.80;;;;;;;;;;5103784;28;20199;-69
2022/05/21 02:55:02;;;;;;;1.50;1.50;;;;;;;;;;5103834;28;20504;-68
2022/05/21 02:57:29;;;;;;;1.90;1.80;;;;;;;;;;5103620;28;20381;-68
2022/05/21 02:59:55;;;;;;;3.00;1.63;;;;;;;;;;5103854;28;20203;-68
2022/05/21 03:02:21;;;;;;;2.53;1.60;;;;;;;;;;5103794;28;20199;-68
2022/05/21 03:04:49;;;;;;;6.72;2.08;;;;;;;;;;5103476;28;20199;-68
2022/05/21 03:07:15;;;;;;;2.20;1.90;;;;;;;;;;5103387;28;20246;-68
2022/05/21 03:12:25;;;;;;;1.85;1.75;;;;;;;;;;5103452;28;20233;-69
2022/05/21 03:14:52;;;;;;;3.28;1.92;;;;;;;;;;5103421;28;20203;-69
2022/05/21 03:17:18;;;;;;;1.90;1.80;;;;;;;;;;5103451;28;20487;-69
2022/05/21 03:19:44;;;;;;;2.22;1.95;;;;;;;;;;5103459;28;20205;-69
2022/05/21 03:22:12;;;;;;;2.45;2.08;;;;;;;;;;5103279;28;20202;-69
2022/05/21 03:24:38;;;;;;;2.00;2.00;;;;;;;;;;5103112;28;20378;-69
2022/05/21 03:27:07;;;;;;;2.30;2.20;;;;;;;;;;5103153;28;20230;-69
2022/05/21 03:29:33;;;;;;;2.08;1.98;;;;;;;;;;5103405;28;20233;-69
2022/05/21 03:32:00;;;;;;;2.45;2.13;;;;;;;;;;5103258;28;20523;-69
2022/05/21 03:34:26;;;;;;;5.30;2.22;;;;;;;;;;5103142;28;20195;-69
2022/05/21 03:36:52;;;;;;;2.15;2.05;;;;;;;;;;5102912;28;20523;-69
2022/05/21 03:39:20;;;;;;;2.50;2.40;;;;;;;;;;5102760;28;20199;-69
2022/05/21 03:41:46;;;;;;;2.25;2.00;;;;;;;;;;5103298;28;20381;-69
2022/05/21 03:44:13;;;;;;;4.68;2.20;;;;;;;;;;5102942;28;20203;-69
2022/05/21 03:46:39;;;;;;;2.08;1.83;;;;;;;;;;5103024;28;20215;-69
2022/05/21 03:49:05;;;;;;;7.40;2.40;;;;;;;;;;5102853;28;20202;-69
2022/05/21 03:51:32;;;;;;;2.53;1.85;;;;;;;;;;5102851;28;20218;-69
2022/05/21 03:53:58;;;;;;;3.17;2.72;;;;;;;;;;5102757;28;20196;-69
2022/05/21 03:56:26;;;;;;;2.58;2.45;;;;;;;;;;5102793;28;20206;-69
2022/05/21 03:58:52;;;;;;;2.47;2.38;;;;;;;;;;5102792;28;20195;-69
2022/05/21 04:01:18;;;;;;;4.20;2.58;;;;;;;;;;5102484;28;20192;-69
2022/05/21 04:03:44;;;;;;;2.10;2.10;;;;;;;;;;5102756;28;20208;-69
2022/05/21 04:06:12;;;;;;;2.92;2.33;;;;;;;;;;5102643;28;20215;-69
2022/05/21 04:08:38;;;;;;;4.07;2.30;;;;;;;;;;5102523;28;20207;-69
2022/05/21 04:11:05;;;;;;;4.70;2.40;;;;;;;;;;5102821;28;20227;-69
2022/05/21 04:13:32;;;;;;;4.15;2.42;;;;;;;;;;5102629;28;20199;-69
2022/05/21 04:15:59;;;;;;;2.38;2.17;;;;;;;;;;5102162;28;20191;-70
2022/05/21 04:18:25;;;;;;;2.45;2.10;;;;;;;;;;5102486;28;20211;-70
2022/05/21 04:20:51;;;;;;;3.72;2.30;;;;;;;;;;5102148;28;20195;-70
2022/05/21 04:23:17;;;;;;;5.18;2.65;;;;;;;;;;5102743;28;20196;-70
2022/05/21 04:25:44;;;;;;;2.40;2.30;;;;;;;;;;5102798;28;20203;-70
2022/05/21 04:28:11;;;;;;;7.70;2.28;;;;;;;;;;5108706;28;20202;-70
2022/05/21 04:30:39;;;;;;;2.25;2.08;;;;;;;;;;5109002;28;20204;-70
2022/05/21 04:33:05;;;;;;;7.22;2.13;;;;;;;;;;5109028;28;20203;-70
2022/05/21 04:38:12;;;;;;;1.73;1.65;;;;;;;;;;5108510;28;20263;-70
2022/05/21 04:40:38;;;;;;;3.88;2.33;;;;;;;;;;5109059;28;20199;-70
2022/05/21 04:43:05;;;;;;;3.40;1.65;;;;;;;;;;5109356;28;20200;-70
2022/05/21 04:45:31;;;;;;;5.43;2.45;;;;;;;;;;5108885;28;20202;-70
2022/05/21 04:48:02;;;;;;;4.55;2.13;;;;;;;;;;5108513;28;20227;-71
2022/05/21 04:50:28;;;;;;;2.78;1.92;;;;;;;;;;5109309;28;20200;-70
2022/05/21 04:52:54;;;;;;;2.95;2.25;;;;;;;;;;5109373;28;20491;-70
2022/05/21 04:55:21;;;;;;;3.60;2.10;;;;;;;;;;5108831;28;20195;-70
2022/05/21 04:57:47;;;;;;;6.00;1.60;;;;;;;;;;5108702;28;20213;-70
2022/05/21 05:00:14;;;;;;;2.05;1.95;;;;;;;;;;5108662;28;20195;-70
2022/05/21 05:02:41;;;;;;;2.15;1.70;;;;;;;;;;5108607;28;20203;-70
2022/05/21 05:05:09;;;;;;;1.77;1.67;;;;;;;;;;5108865;28;20207;-70
2022/05/21 05:07:38;;;;;;;1.83;1.73;;;;;;;;;;5108412;28;20221;-70
2022/05/21 05:10:04;;;;;;;1.88;1.73;;;;;;;;;;5108861;28;20196;-70
2022/05/21 05:12:31;;;;;;;3.58;2.33;;;;;;;;;;5109198;28;20199;-70
2022/05/21 05:14:57;;;;;;;1.85;1.75;;;;;;;;;;5109168;28;20196;-70
2022/05/21 05:17:25;;;;;;;1.40;1.40;;;;;;;;;;5108423;28;20230;-70
2022/05/21 05:19:54;;;;;;;2.00;1.90;;;;;;;;;;5108664;28;20204;-69
2022/05/21 05:22:22;;;;;;;2.08;1.90;;;;;;;;;;5108683;28;20222;-69
2022/05/21 05:24:48;;;;;;;2.22;2.13;;;;;;;;;;5108654;28;20562;-70
2022/05/21 05:27:14;;;;;;;1.95;1.90;;;;;;;;;;5108655;28;20230;-70
2022/05/21 05:29:40;;;;;;;2.65;1.75;;;;;;;;;;5108466;28;20196;-69
2022/05/21 05:32:07;;;;;;;1.95;1.60;;;;;;;;;;5108569;28;20195;-69
2022/05/21 05:34:34;;;;;;;3.90;1.90;;;;;;;;;;5108361;28;20202;-69
2022/05/21 05:37:00;;;;;;;1.83;1.67;;;;;;;;;;5108391;28;20191;-70
2022/05/21 05:39:28;;;;;;;2.05;1.65;;;;;;;;;;5104128;28;20199;-70
2022/05/21 05:41:54;;;;;;;4.68;1.90;;;;;;;;;;5105296;28;20223;-70
2022/05/21 05:44:21;;;;;;;1.70;1.60;;;;;;;;;;5105049;28;20203;-70
2022/05/21 05:46:47;;;;;;;3.60;1.38;;;;;;;;;;5105149;28;20215;-69
2022/05/21 05:49:13;;;;;;;2.63;1.45;;;;;;;;;;5105037;28;20203;-70
2022/05/21 05:51:40;;;;;;;2.30;1.25;;;;;;;;;;5105272;28;20384;-70
2022/05/21 05:54:07;;;;;;;1.10;1.10;;;;;;;;;;5105099;28;20195;-70
2022/05/21 05:56:34;;;;;;;1.70;1.42;;;;;;;;;;5104665;28;20214;-70
2022/05/21 06:01:44;;;;;;;1.52;1.30;;;;;;;;;;5104932;28;20533;-70
2022/05/21 06:04:10;;;;;;;1.40;1.20;;;;;;;;;;5104849;28;20512;-70
2022/05/21 06:06:37;;;;;;;1.10;0.98;;;;;;;;;;5104547;28;20223;-70
2022/05/21 06:09:04;;;;;;;1.75;1.10;;;;;;;;;;5104631;28;20202;-70
2022/05/21 06:11:33;;;;;;;4.38;0.90;;;;;;;;;;5104639;28;20196;-70
2022/05/21 06:14:00;;;;;;;1.35;0.80;;;;;;;;;;5104709;28;20500;-70
2022/05/21 06:16:27;;;;;;;0.70;0.70;;;;;;;;;;5104417;28;20195;-70
2022/05/21 06:18:53;;;;;;;0.88;0.88;;;;;;;;;;5104556;28;20204;-70
2022/05/21 06:21:19;;;;;;;2.05;0.70;;;;;;;;;;5104663;28;20386;-69
2022/05/21 06:23:45;;;;;;;1.38;0.82;;;;;;;;;;5104313;28;20200;-69
2022/05/21 06:26:13;;;;;;;0.70;0.70;;;;;;;;;;5104139;28;20203;-69
2022/05/21 06:28:39;;;;;;;0.80;0.80;;;;;;;;;;5104556;28;20189;-70
2022/05/21 06:31:08;;;;;;;1.00;0.80;;;;;;;;;;5104443;28;20421;-70
2022/05/21 06:33:34;;;;;;;4.20;0.70;;;;;;;;;;5104419;28;20496;-70
2022/05/21 06:36:05;;;;;;;2.13;0.60;;;;;;;;;;5104127;28;20199;-70
2022/05/21 06:38:32;;;;;;;3.17;0.73;;;;;;;;;;5104065;28;20722;-70
2022/05/21 06:40:58;;;;;;;0.90;0.90;;;;;;;;;;5104228;28;20202;-70
2022/05/21 06:43:24;;;;;;;1.65;0.70;;;;;;;;;;5104249;28;20204;-70
2022/05/21 06:45:50;;;;;;;0.93;0.65;;;;;;;;;;5104046;28;20495;-70
2022/05/21 06:48:18;;;;;;;0.70;0.70;;;;;;;;;;5103985;28;20216;-70
2022/05/21 06:50:45;;;;;;;1.08;0.82;;;;;;;;;;5103538;28;20359;-70
2022/05/21 06:53:11;;;;;;;3.85;0.70;;;;;;;;;;5103930;28;20522;-70
2022/05/21 06:55:38;;;;;;;0.70;0.60;;;;;;;;;;5104029;28;20391;-70
2022/05/21 06:58:04;;;;;;;1.77;1.13;;;;;;;;;;5103776;28;20191;-70
2022/05/21 07:00:31;;;;;;;1.52;0.63;;;;;;;;;;5103798;28;20200;-70
2022/05/21 07:02:57;;;;;;;0.70;0.60;;;;;;;;;;5103689;28;20212;-70
2022/05/21 07:08:15;;;;;;;0.77;0.77;;;;;;;;;;5103460;28;20226;-70
2022/05/21 07:10:41;;;;;;;0.60;0.60;;;;;;;;;;5103488;28;20203;-70
2022/05/21 07:13:07;;;;;;;1.20;0.77;;;;;;;;;;5103543;28;20199;-70
2022/05/21 07:15:34;;;;;;;0.85;0.80;;;;;;;;;;5103451;28;20203;-70
2022/05/21 07:18:01;;;;;;;1.23;0.85;;;;;;;;;;5103194;28;20395;-70
2022/05/21 07:20:29;;;;;;;3.83;0.90;;;;;;;;;;5103640;28;20196;-70
2022/05/21 07:22:55;;;;;;;2.22;0.80;;;;;;;;;;5103517;28;20427;-70
2022/05/21 07:25:24;;;;;;;0.95;0.68;;;;;;;;;;5103469;28;20196;-70
2022/05/21 07:27:50;;;;;;;1.35;0.90;;;;;;;;;;5102866;28;20222;-70
2022/05/21 07:30:16;;;;;;;3.75;1.05;;;;;;;;;;5103212;28;20226;-70
2022/05/21 07:32:44;;;;;;;1.05;1.00;;;;;;;;;;5103070;28;20204;-70
2022/05/21 07:35:12;;;;;;;3.08;2.75;;;;;;;;;;5103100;28;20249;-70
2022/05/21 07:37:39;;;;;;;1.42;0.70;;;;;;;;;;5102919;28;20230;-69
2022/05/21 07:40:07;;;;;;;0.63;0.50;;;;;;;;;;5103078;28;20195;-69
2022/05/21 07:42:34;;;;;;;2.28;0.90;;;;;;;;;;5103088;28;20411;-69
2022/05/21 07:45:00;;;;;;;3.05;0.73;;;;;;;;;;5102949;28;20196;-69
2022/05/21 07:47:26;;;;;;;1.38;0.75;;;;;;;;;;5102798;28;20534;-68
2022/05/21 07:49:56;;;;;;;1.48;0.73;;;;;;;;;;5103040;28;20317;-70
2022/05/21 07:52:22;;;;;;;0.50;0.50;;;;;;;;;;5102937;28;20203;-69
2022/05/21 07:54:49;;;;;;;1.63;0.60;;;;;;;;;;5102683;28;20196;-69
2022/05/21 07:57:16;;;;;;;0.77;0.77;;;;;;;;;;5102572;28;20214;-69
2022/05/21 07:59:42;;;;;;;0.45;0.45;;;;;;;;;;5097787;28;20196;-70
2022/05/21 08:02:11;;;;;;;0.80;0.80;;;;;;;;;;5089364;28;20596;-69
2022/05/21 08:04:38;;;;;;;1.50;0.70;;;;;;;;;;5096350;28;20215;-70
2022/05/21 08:07:04;;;;;;;0.93;0.47;;;;;;;;;;5096653;28;20233;-70
2022/05/21 08:09:31;;;;;;;0.55;0.50;;;;;;;;;;5097216;28;20528;-70
2022/05/21 08:11:59;;;;;;;0.93;0.60;;;;;;;;;;5096587;28;20471;-71
2022/05/21 08:14:25;;;;;;;1.52;0.60;;;;;;;;;;5096280;28;20423;-72
2022/05/21 08:16:51;;;;;;;0.50;0.50;;;;;;;;;;5096410;28;20214;-71
2022/05/21 08:19:18;;;;;;;0.70;0.70;;;;;;;;;;5096691;28;20475;-69
2022/05/21 08:21:44;;;;;;;1.20;0.50;;;;;;;;;;5096518;28;20211;-69
2022/05/21 08:26:57;;;;;;;0.73;0.73;;;;;;;;;;5096427;28;20858;-70
2022/05/21 08:29:25;;;;;;;1.05;0.60;;;;;;;;;;5096702;28;20207;-70
2022/05/21 08:31:51;;;;;;;1.10;0.40;;;;;;;;;;5096503;28;20284;-70
2022/05/21 08:34:17;;;;;;;0.85;0.82;;;;;;;;;;5096637;28;20214;-70
2022/05/21 08:36:44;;;;;;;0.80;0.70;;;;;;;;;;5096346;28;20227;-70
2022/05/21 08:39:10;;;;;;;1.00;0.50;;;;;;;;;;5095729;28;20211;-70
2022/05/21 08:41:39;;;;;;;1.10;0.52;;;;;;;;;;5095628;28;20361;-70
2022/05/21 08:44:07;;;;;;;1.67;0.63;;;;;;;;;;5095867;28;20274;-70
2022/05/21 08:46:42;;;;;;;1.48;0.50;;;;;;;;;;5095687;28;20212;-70
2022/05/21 08:49:09;;;;;;;2.50;0.60;;;;;;;;;;5095744;28;20222;-70
2022/05/21 08:51:37;;;;;;;0.40;0.40;;;;;;;;;;5095506;28;20488;-71
2022/05/21 08:54:04;;;;;;;0.30;0.30;;;;;;;;;;5095065;28;20214;-70
2022/05/21 08:56:31;;;;;;;1.10;0.47;;;;;;;;;;5095451;28;20298;-70
2022/05/21 08:59:01;;;;;;;0.50;0.50;;;;;;;;;;5096110;28;20211;-70
2022/05/21 09:01:27;;;;;;;4.20;0.73;;;;;;;;;;5095734;28;20268;-70
2022/05/21 09:03:56;;;;;;;2.80;0.55;;;;;;;;;;5095930;28;20208;-70
2022/05/21 09:06:28;;;;;;;1.67;0.52;;;;;;;;;;5095583;28;20223;-70
2022/05/21 09:08:57;;;;;;;1.85;0.50;;;;;;;;;;5096178;28;20228;-70
2022/05/21 09:11:25;;;;;;;0.40;0.40;;;;;;;;;;5095901;28;20507;-70
2022/05/21 09:13:59;;;;;;;0.75;0.43;;;;;;;;;;5098828;28;20341;-70
2022/05/21 09:19:13;;;;;;;2.45;0.50;;;;;;;;;;5093718;28;20210;-70
2022/05/21 09:21:42;;;;;;;1.75;0.40;;;;;;;;;;5098776;28;20203;-70
2022/05/21 09:24:08;;;;;;;0.80;0.68;;;;;;;;;;5099290;28;20531;-70
2022/05/21 09:26:46;;;;;;;0.85;0.50;;;;;;;;;;5099015;28;20348;-70
2022/05/21 09:29:13;;;;;;;0.57;0.57;;;;;;;;;;5098896;28;21107;-70
2022/05/21 09:31:40;;;;;;;4.13;0.55;;;;;;;;;;5098727;28;20207;-70
2022/05/21 09:34:23;;;;;;;0.50;0.50;;;;;;;;;;5099095;28;20223;-70
2022/05/21 09:36:49;;;;;;;0.50;0.50;;;;;;;;;;5099716;28;20215;-71
2022/05/21 09:39:29;;;;;;;1.65;0.50;;;;;;;;;;5099776;28;20203;-70
2022/05/21 09:42:07;;;;;;;0.40;0.40;;;;;;;;;;5098841;28;20283;-70
2022/05/21 09:47:22;;;;;;;0.65;0.63;;;;;;;;;;5099730;28;20290;-70
2022/05/21 09:49:59;;;;;;;0.82;0.52;;;;;;;;;;5099618;28;20212;-70
2022/05/21 09:52:25;;;;;;;1.42;0.47;;;;;;;;;;5099064;28;20300;-70
2022/05/21 09:54:51;;;;;;;0.52;0.52;;;;;;;;;;5099206;28;20203;-70
2022/05/21 09:57:22;;;;;;;0.93;0.40;;;;;;;;;;5099009;28;20240;-70
2022/05/21 10:00:00;;;;;;;0.95;0.50;;;;;;;;;;5099227;28;20253;-70
2022/05/21 10:02:36;;;;;;;1.05;0.40;;;;;;;;;;5098684;28;20211;-70
2022/05/21 10:05:04;;;;;;;2.28;0.50;;;;;;;;;;5098731;28;20230;-70
2022/05/21 10:13:05;;;;;;;1.10;0.40;;;;;;;;;;5098651;28;20210;-71
2022/05/21 10:15:35;;;;;;;0.68;0.63;;;;;;;;;;5098692;28;20242;-70
2022/05/21 10:18:03;;;;;;;2.13;0.40;;;;;;;;;;5098565;28;20387;-70
2022/05/21 10:20:34;;;;;;;0.50;0.50;;;;;;;;;;5098431;28;20226;-70
2022/05/21 10:23:04;;;;;;;0.95;0.52;;;;;;;;;;5098430;28;20242;-71
2022/05/21 10:25:35;;;;;;;1.27;0.60;;;;;;;;;;5097990;28;20203;-71
2022/05/21 10:28:09;;;;;;;1.45;0.50;;;;;;;;;;5098480;28;20228;-70
2022/05/21 10:30:43;;;;;;;2.05;0.70;;;;;;;;;;5098759;28;20210;-70
2022/05/21 10:33:16;;;;;;;3.50;0.60;;;;;;;;;;5098282;28;20516;-70
2022/05/21 10:35:59;;;;;;;0.57;0.57;;;;;;;;;;5097167;28;20410;-71
2022/05/21 10:38:31;;;;;;;1.23;0.50;;;;;;;;;;5100468;28;20216;-70
2022/05/21 10:41:01;;;;;;;2.42;0.82;;;;;;;;;;5101388;28;20203;-71
2022/05/21 10:43:33;;;;;;;1.25;0.57;;;;;;;;;;5100663;28;20246;-71
2022/05/21 10:46:05;;;;;;;0.80;0.40;;;;;;;;;;5100507;28;20522;-70
2022/05/21 10:48:41;;;;;;;1.30;0.63;;;;;;;;;;5099997;28;20235;-70
2022/05/21 10:51:11;;;;;;;0.50;0.47;;;;;;;;;;5100947;28;20412;-70
2022/05/21 10:53:47;;;;;;;0.65;0.60;;;;;;;;;;5100621;28;20203;-70
2022/05/21 10:56:21;;;;;;;2.58;0.80;;;;;;;;;;5100250;28;20536;-70
2022/05/21 10:58:55;;;;;;;3.63;3.30;;;;;;;;;;5100877;28;20209;-71
2022/05/21 11:01:27;;;;;;;1.42;1.33;;;;;;;;;;5100548;28;20507;-70
2022/05/21 11:04:08;;;;;;;1.50;1.40;;;;;;;;;;5100036;28;20215;-70
2022/05/21 11:06:45;;;;;;;1.55;0.93;;;;;;;;;;5099777;28;20285;-70
2022/05/21 11:09:15;;;;;;;1.88;1.70;;;;;;;;;;5099797;28;20219;-70
2022/05/21 11:11:50;;;;;;;2.13;0.80;;;;;;;;;;5099823;28;20207;-71
2022/05/21 11:14:17;;;;;;;0.95;0.40;;;;;;;;;;5100343;28;20572;-71
2022/05/21 11:16:46;;;;;;;2.03;0.60;;;;;;;;;;5099889;28;20210;-70
2022/05/21 11:19:16;;;;;;;1.13;0.60;;;;;;;;;;5099849;28;20206;-70
2022/05/21 11:21:45;;;;;;;1.17;0.57;;;;;;;;;;5099820;28;20518;-70
2022/05/21 11:24:14;;;;;;;3.75;0.70;;;;;;;;;;5100323;28;20207;-70
2022/05/21 11:26:46;;;;;;;2.28;0.55;;;;;;;;;;5099834;28;20417;-70
2022/05/21 11:29:16;;;;;;;0.70;0.70;;;;;;;;;;5099856;28;20554;-70
2022/05/21 11:37:21;;;;;;;2.13;0.60;;;;;;;;;;5098453;28;20232;-70
2022/05/21 11:39:48;;;;;;;3.08;0.98;;;;;;;;;;5099445;28;20202;-70
2022/05/21 11:42:16;;;;;;;4.28;1.00;;;;;;;;;;5099915;28;20210;-70
2022/05/21 11:44:59;;;;;;;0.95;0.45;;;;;;;;;;5100328;28;20248;-70
2022/05/21 11:47:42;;;;;;;1.10;0.50;;;;;;;;;;5099761;28;20205;-70
2022/05/21 11:50:16;;;;;;;0.98;0.55;;;;;;;;;;5100330;28;20227;-70
2022/05/21 11:52:53;;;;;;;0.50;0.50;;;;;;;;;;5099983;28;20202;-70
2022/05/21 11:55:21;;;;;;;0.82;0.50;;;;;;;;;;5099825;28;20551;-70
2022/05/21 11:57:49;;;;;;;1.08;0.68;;;;;;;;;;5100119;28;20210;-70
2022/05/21 12:00:33;;;;;;;1.20;0.50;;;;;;;;;;5100169;28;20191;-70
2022/05/21 12:03:11;;;;;;;1.60;0.60;;;;;;;;;;5099824;28;20218;-70
2022/05/21 12:05:53;;;;;;;2.53;0.90;;;;;;;;;;5099851;28;20223;-70
2022/05/21 12:08:35;;;;;;;2.35;0.52;;;;;;;;;;5099543;28;20250;-70
2022/05/21 12:11:04;;;;;;;1.95;0.73;;;;;;;;;;5099665;28;20283;-70
2022/05/21 12:13:46;;;;;;;1.25;0.60;;;;;;;;;;5099726;28;20240;-70
2022/05/21 12:16:29;;;;;;;4.05;0.65;;;;;;;;;;5099575;28;20207;-71
2022/05/21 12:18:56;;;;;;;1.25;0.68;;;;;;;;;;5099456;28;20223;-71
2022/05/21 12:21:44;;;;;;;2.47;0.50;;;;;;;;;;5100027;28;20487;-71
2022/05/21 12:24:31;;;;;;;1.65;0.57;;;;;;;;;;5073714;28;20233;-71
2022/05/21 12:27:01;;;;;;;3.05;0.60;;;;;;;;;;5099347;28;20203;-71
2022/05/21 12:29:29;;;;;;;1.58;0.60;;;;;;;;;;5099604;28;20227;-71
2022/05/21 12:31:57;;;;;;;0.80;0.50;;;;;;;;;;5099461;28;20210;-70
2022/05/21 12:34:30;;;;;;;1.65;0.47;;;;;;;;;;5099715;28;20203;-71
2022/05/21 12:37:05;;;;;;;0.80;0.80;;;;;;;;;;5099124;28;20210;-71
2022/05/21 12:39:34;;;;;;;1.50;1.00;;;;;;;;;;5099555;28;20191;-70
2022/05/21 12:42:06;;;;;;;1.45;0.80;;;;;;;;;;5099426;28;20306;-70
2022/05/21 12:44:38;;;;;;;1.95;0.68;;;;;;;;;;5099251;28;20497;-71
2022/05/21 12:47:04;;;;;;;2.45;0.80;;;;;;;;;;5099350;28;20205;-70
2022/05/21 12:49:31;;;;;;;1.70;0.70;;;;;;;;;;5103629;28;20222;-70
2022/05/21 12:51:58;;;;;;;3.75;0.70;;;;;;;;;;5103562;28;20431;-71
2022/05/21 12:54:25;;;;;;;0.60;0.60;;;;;;;;;;5103648;28;20202;-71
2022/05/21 12:56:53;;;;;;;0.90;0.55;;;;;;;;;;5083070;28;20236;-71
2022/05/21 12:59:21;;;;;;;0.90;0.63;;;;;;;;;;5083055;28;20519;-71
2022/05/21 13:01:58;;;;;;;0.65;0.57;;;;;;;;;;5083352;28;20207;-71
2022/05/21 13:04:26;;;;;;;2.58;0.50;;;;;;;;;;5082711;28;20219;-69
2022/05/21 13:06:54;;;;;;;1.60;0.60;;;;;;;;;;5082679;28;20574;-69
2022/05/21 13:09:21;;;;;;;0.65;0.65;;;;;;;;;;5082898;28;20227;-69
2022/05/21 13:11:47;;;;;;;2.50;0.88;;;;;;;;;;5082794;28;20403;-69
2022/05/21 13:14:18;;;;;;;2.30;0.85;;;;;;;;;;5082743;28;20211;-69
2022/05/21 13:16:50;;;;;;;3.70;0.65;;;;;;;;;;5082692;28;20211;-69
2022/05/21 13:19:28;;;;;;;2.00;0.60;;;;;;;;;;5085270;28;20215;-69
2022/05/21 13:21:58;;;;;;;1.10;0.60;;;;;;;;;;5085473;28;20266;-69
2022/05/21 13:24:29;;;;;;;2.78;0.60;;;;;;;;;;5085461;28;20199;-69
2022/05/21 13:27:04;;;;;;;0.75;0.63;;;;;;;;;;5084992;28;20195;-69
2022/05/21 13:29:31;;;;;;;0.70;0.70;;;;;;;;;;5085327;28;20422;-69
2022/05/21 13:32:13;;;;;;;3.67;0.63;;;;;;;;;;5085191;28;20196;-69
2022/05/21 13:34:39;;;;;;;1.48;0.60;;;;;;;;;;5085066;28;20219;-68
2022/05/21 13:37:05;;;;;;;3.53;0.80;;;;;;;;;;5084826;28;20195;-68
2022/05/21 13:39:32;;;;;;;0.60;0.60;;;;;;;;;;5085252;28;20361;-68
2022/05/21 13:42:00;;;;;;;3.15;1.02;;;;;;;;;;5085068;28;20203;-69
2022/05/21 13:44:26;;;;;;;1.60;0.70;;;;;;;;;;5085157;28;20212;-69
2022/05/21 13:46:56;;;;;;;2.50;0.68;;;;;;;;;;5084801;28;20203;-69
2022/05/21 13:49:27;;;;;;;1.55;0.70;;;;;;;;;;5085272;28;20219;-69
2022/05/21 13:51:53;;;;;;;2.65;1.67;;;;;;;;;;5085179;28;20200;-69
2022/05/21 13:54:20;;;;;;;2.10;1.48;;;;;;;;;;5084959;28;20203;-69
2022/05/21 13:56:46;;;;;;;2.25;1.50;;;;;;;;;;5084445;28;20203;-69
2022/05/21 13:59:17;;;;;;;2.50;2.30;;;;;;;;;;5083516;28;20410;-69
2022/05/21 14:01:45;;;;;;;1.67;1.20;;;;;;;;;;5084724;28;20399;-69
2022/05/21 14:04:13;;;;;;;0.90;0.90;;;;;;;;;;5084522;28;20211;-69
2022/05/21 14:06:41;;;;;;;1.52;0.60;;;;;;;;;;5084511;28;20231;-69
2022/05/21 14:09:15;;;;;;;2.45;0.60;;;;;;;;;;5084728;28;20227;-69
2022/05/21 14:11:49;;;;;;;2.03;0.60;;;;;;;;;;5084617;28;20408;-68
2022/05/21 14:14:15;;;;;;;0.70;0.70;;;;;;;;;;5084394;28;20385;-68
2022/05/21 14:16:43;;;;;;;1.50;0.68;;;;;;;;;;5083892;28;20196;-68
2022/05/21 14:19:11;;;;;;;0.75;0.63;;;;;;;;;;5084381;28;20449;-69
2022/05/21 14:21:57;;;;;;;1.15;0.70;;;;;;;;;;5084550;28;20385;-69
2022/05/21 14:24:25;;;;;;;1.83;0.95;;;;;;;;;;5084464;28;20386;-69
2022/05/21 14:26:55;;;;;;;3.47;1.10;;;;;;;;;;5084045;28;20490;-68
2022/05/21 14:29:32;;;;;;;1.50;1.10;;;;;;;;;;5083956;28;20243;-71
2022/05/21 14:32:11;;;;;;;1.25;0.93;;;;;;;;;;5084111;28;20195;-69
2022/05/21 14:34:37;;;;;;;1.23;1.10;;;;;;;;;;5084161;28;20204;-68
2022/05/21 14:37:05;;;;;;;1.15;0.68;;;;;;;;;;5083888;28;20196;-69
2022/05/21 14:39:31;;;;;;;3.40;0.98;;;;;;;;;;5083906;28;20230;-69
2022/05/21 14:41:59;;;;;;;2.53;1.00;;;;;;;;;;5084074;28;20426;-69
2022/05/21 14:44:26;;;;;;;2.13;1.45;;;;;;;;;;5084144;28;20371;-70
2022/05/21 14:49:37;;;;;;;2.53;0.95;;;;;;;;;;5083816;28;20219;-69
2022/05/21 14:54:51;;;;;;;2.83;0.80;;;;;;;;;;5083766;28;20261;-69
2022/05/21 14:57:18;;;;;;;3.85;0.75;;;;;;;;;;5083322;28;20208;-69
2022/05/21 14:59:44;;;;;;;1.95;0.80;;;;;;;;;;5083549;28;20192;-69
2022/05/21 15:02:12;;;;;;;1.05;0.63;;;;;;;;;;5083609;28;20196;-68
2022/05/21 15:04:38;;;;;;;0.73;0.68;;;;;;;;;;5083376;28;20195;-69
2022/05/21 15:07:08;;;;;;;2.47;0.88;;;;;;;;;;5083367;28;20502;-69
2022/05/21 15:09:35;;;;;;;2.45;1.10;;;;;;;;;;5083573;28;20218;-68
2022/05/21 15:12:02;;;;;;;1.75;0.98;;;;;;;;;;5083260;28;20199;-69
2022/05/21 15:14:28;;;;;;;3.45;1.08;;;;;;;;;;5082140;28;20199;-69
2022/05/21 15:16:55;;;;;;;5.15;1.00;;;;;;;;;;5082896;28;20210;-69
2022/05/21 15:19:22;;;;;;;0.98;0.90;;;;;;;;;;5083240;28;20196;-69
2022/05/21 15:21:51;;;;;;;1.55;0.80;;;;;;;;;;5083439;28;20196;-69
2022/05/21 15:24:19;;;;;;;2.47;0.70;;;;;;;;;;5083226;28;20200;-69
2022/05/21 15:26:46;;;;;;;3.40;1.02;;;;;;;;;;5082708;28;20242;-69
2022/05/21 15:29:12;;;;;;;0.90;0.73;;;;;;;;;;5082721;28;20210;-69
2022/05/21 15:31:39;;;;;;;0.95;0.70;;;;;;;;;;5083387;28;20195;-69
2022/05/21 15:34:05;;;;;;;2.88;0.90;;;;;;;;;;5083125;28;20495;-69